Roeulx, Belgium
Current Conditions -  °F | °C
As of 4:25 PM on Tuesday 21 Oct 2014 (Local Time) from EBCV Reporting Station
Broken Clouds Broken Clouds  
Wind Chill: 54°   Ceiling: 10000
Heat Index: 54°   Visibility: 6mi
Dew Point: 43°   Wind: 18mph
Humidity: 67%   Direction: 290°WNW
Pressure: 29.71"   Gusts: 33mph
Location:  50.5°N, 4.11°E
Report Text: EBCV 211425Z AUTO 29016G29KT 9999 FEW036/// SCT050/// BKN100/// 12/06 Q1006 BLU
Loading
Personal Weather Stations






























Interactive Weather Map
Tropical Storm Tracking
New forecast layout! Learn more

10-Day Weather Forecast

Advertisements
Track Severe Weather on mobile